sensor_id;sensor_type;location;lat;lon;timestamp;P1;durP1;ratioP1;P2;durP2;ratioP2
11887;SDS011;6003;42.756;23.130;2023-07-02T00:01:51;4.73;;;3.30;;
11887;SDS011;6003;42.756;23.130;2023-07-02T00:04:18;3.37;;;3.00;;
11887;SDS011;6003;42.756;23.130;2023-07-02T00:06:45;3.57;;;2.87;;
11887;SDS011;6003;42.756;23.130;2023-07-02T00:09:13;3.03;;;2.83;;
11887;SDS011;6003;42.756;23.130;2023-07-02T00:11:41;4.33;;;3.07;;
11887;SDS011;6003;42.756;23.130;2023-07-02T00:14:11;4.73;;;2.87;;
11887;SDS011;6003;42.756;23.130;2023-07-02T00:16:39;3.53;;;3.20;;
11887;SDS011;6003;42.756;23.130;2023-07-02T00:19:07;4.60;;;3.10;;
11887;SDS011;6003;42.756;23.130;2023-07-02T00:21:34;5.40;;;3.30;;
11887;SDS011;6003;42.756;23.130;2023-07-02T00:24:02;6.67;;;2.87;;
11887;SDS011;6003;42.756;23.130;2023-07-02T00:26:30;4.87;;;3.23;;
11887;SDS011;6003;42.756;23.130;2023-07-02T00:28:57;4.40;;;2.90;;
11887;SDS011;6003;42.756;23.130;2023-07-02T00:31:25;6.77;;;2.70;;
11887;SDS011;6003;42.756;23.130;2023-07-02T00:33:52;5.10;;;2.83;;
11887;SDS011;6003;42.756;23.130;2023-07-02T00:36:18;3.47;;;2.83;;
11887;SDS011;6003;42.756;23.130;2023-07-02T00:38:45;5.17;;;2.97;;
11887;SDS011;6003;42.756;23.130;2023-07-02T00:41:13;5.07;;;3.27;;
11887;SDS011;6003;42.756;23.130;2023-07-02T00:43:40;3.10;;;2.80;;
11887;SDS011;6003;42.756;23.130;2023-07-02T00:46:10;3.90;;;3.00;;
11887;SDS011;6003;42.756;23.130;2023-07-02T00:48:44;4.00;;;2.90;;
11887;SDS011;6003;42.756;23.130;2023-07-02T00:51:13;10.90;;;3.57;;
11887;SDS011;6003;42.756;23.130;2023-07-02T00:53:42;4.27;;;3.17;;
11887;SDS011;6003;42.756;23.130;2023-07-02T00:56:10;3.70;;;2.90;;
11887;SDS011;6003;42.756;23.130;2023-07-02T00:58:38;5.07;;;3.60;;
11887;SDS011;6003;42.756;23.130;2023-07-02T01:01:11;5.77;;;3.67;;
11887;SDS011;6003;42.756;23.130;2023-07-02T01:03:39;8.90;;;3.80;;
11887;SDS011;6003;42.756;23.130;2023-07-02T01:06:18;7.13;;;3.60;;
11887;SDS011;6003;42.756;23.130;2023-07-02T01:08:50;8.20;;;4.10;;
11887;SDS011;6003;42.756;23.130;2023-07-02T01:11:17;5.27;;;3.47;;
11887;SDS011;6003;42.756;23.130;2023-07-02T01:13:45;9.93;;;3.97;;
11887;SDS011;6003;42.756;23.130;2023-07-02T01:16:12;5.87;;;3.27;;
11887;SDS011;6003;42.756;23.130;2023-07-02T01:18:39;5.47;;;3.80;;
11887;SDS011;6003;42.756;23.130;2023-07-02T01:21:07;4.77;;;3.50;;
11887;SDS011;6003;42.756;23.130;2023-07-02T01:23:34;10.60;;;3.53;;
11887;SDS011;6003;42.756;23.130;2023-07-02T01:26:01;7.40;;;3.43;;
11887;SDS011;6003;42.756;23.130;2023-07-02T01:28:34;5.00;;;3.03;;
11887;SDS011;6003;42.756;23.130;2023-07-02T01:31:02;5.97;;;4.00;;
11887;SDS011;6003;42.756;23.130;2023-07-02T01:33:30;7.00;;;3.50;;
11887;SDS011;6003;42.756;23.130;2023-07-02T01:35:57;6.37;;;3.37;;
11887;SDS011;6003;42.756;23.130;2023-07-02T01:38:25;6.97;;;3.30;;
11887;SDS011;6003;42.756;23.130;2023-07-02T01:40:53;4.17;;;3.30;;
11887;SDS011;6003;42.756;23.130;2023-07-02T01:43:19;7.70;;;3.63;;
11887;SDS011;6003;42.756;23.130;2023-07-02T01:45:46;4.40;;;3.50;;
11887;SDS011;6003;42.756;23.130;2023-07-02T01:48:13;6.63;;;3.30;;
11887;SDS011;6003;42.756;23.130;2023-07-02T01:50:40;6.83;;;3.43;;
11887;SDS011;6003;42.756;23.130;2023-07-02T01:53:07;5.57;;;3.53;;
11887;SDS011;6003;42.756;23.130;2023-07-02T01:55:35;5.00;;;3.93;;
11887;SDS011;6003;42.756;23.130;2023-07-02T01:58:02;3.83;;;3.40;;
11887;SDS011;6003;42.756;23.130;2023-07-02T02:00:29;7.17;;;4.40;;
11887;SDS011;6003;42.756;23.130;2023-07-02T02:02:56;4.73;;;3.80;;
11887;SDS011;6003;42.756;23.130;2023-07-02T02:05:23;6.30;;;3.67;;
11887;SDS011;6003;42.756;23.130;2023-07-02T02:07:50;5.80;;;3.50;;
11887;SDS011;6003;42.756;23.130;2023-07-02T02:10:17;6.37;;;3.87;;
11887;SDS011;6003;42.756;23.130;2023-07-02T02:12:45;6.87;;;4.00;;
11887;SDS011;6003;42.756;23.130;2023-07-02T02:15:12;6.63;;;3.70;;
11887;SDS011;6003;42.756;23.130;2023-07-02T02:17:39;7.60;;;4.00;;
11887;SDS011;6003;42.756;23.130;2023-07-02T02:20:06;6.33;;;3.93;;
11887;SDS011;6003;42.756;23.130;2023-07-02T02:22:36;5.77;;;4.07;;
11887;SDS011;6003;42.756;23.130;2023-07-02T02:25:03;6.20;;;3.60;;
11887;SDS011;6003;42.756;23.130;2023-07-02T02:27:30;7.67;;;3.93;;
11887;SDS011;6003;42.756;23.130;2023-07-02T02:29:58;5.03;;;3.70;;
11887;SDS011;6003;42.756;23.130;2023-07-02T02:32:25;6.77;;;3.77;;
11887;SDS011;6003;42.756;23.130;2023-07-02T02:34:53;5.97;;;4.00;;
11887;SDS011;6003;42.756;23.130;2023-07-02T02:37:20;6.53;;;3.93;;
11887;SDS011;6003;42.756;23.130;2023-07-02T02:39:48;7.97;;;3.20;;
11887;SDS011;6003;42.756;23.130;2023-07-02T02:42:15;6.70;;;3.67;;
11887;SDS011;6003;42.756;23.130;2023-07-02T02:44:42;3.93;;;3.40;;
11887;SDS011;6003;42.756;23.130;2023-07-02T02:47:11;4.80;;;3.90;;
11887;SDS011;6003;42.756;23.130;2023-07-02T02:49:38;5.33;;;3.57;;
11887;SDS011;6003;42.756;23.130;2023-07-02T02:52:05;5.57;;;3.73;;
11887;SDS011;6003;42.756;23.130;2023-07-02T02:54:32;6.73;;;3.20;;
11887;SDS011;6003;42.756;23.130;2023-07-02T02:56:59;4.33;;;2.87;;
11887;SDS011;6003;42.756;23.130;2023-07-02T02:59:26;4.37;;;2.43;;
11887;SDS011;6003;42.756;23.130;2023-07-02T03:01:54;2.63;;;2.43;;
11887;SDS011;6003;42.756;23.130;2023-07-02T03:04:22;2.53;;;2.30;;
11887;SDS011;6003;42.756;23.130;2023-07-02T03:06:50;4.97;;;2.60;;
11887;SDS011;6003;42.756;23.130;2023-07-02T03:09:17;4.07;;;2.60;;
11887;SDS011;6003;42.756;23.130;2023-07-02T03:11:44;5.27;;;2.53;;
11887;SDS011;6003;42.756;23.130;2023-07-02T03:14:12;3.17;;;2.73;;
11887;SDS011;6003;42.756;23.130;2023-07-02T03:16:39;5.07;;;2.57;;
11887;SDS011;6003;42.756;23.130;2023-07-02T03:19:06;3.23;;;2.53;;
11887;SDS011;6003;42.756;23.130;2023-07-02T03:21:34;3.30;;;2.73;;
11887;SDS011;6003;42.756;23.130;2023-07-02T03:24:01;2.80;;;2.53;;
11887;SDS011;6003;42.756;23.130;2023-07-02T03:26:28;3.37;;;2.53;;
11887;SDS011;6003;42.756;23.130;2023-07-02T03:28:55;3.30;;;2.80;;
11887;SDS011;6003;42.756;23.130;2023-07-02T03:31:21;3.80;;;3.20;;
11887;SDS011;6003;42.756;23.130;2023-07-02T03:33:48;5.83;;;3.53;;
11887;SDS011;6003;42.756;23.130;2023-07-02T03:36:15;6.97;;;3.87;;
11887;SDS011;6003;42.756;23.130;2023-07-02T03:38:44;6.63;;;3.53;;
11887;SDS011;6003;42.756;23.130;2023-07-02T03:41:11;6.07;;;3.90;;
11887;SDS011;6003;42.756;23.130;2023-07-02T03:43:38;3.67;;;3.33;;
11887;SDS011;6003;42.756;23.130;2023-07-02T03:46:04;5.60;;;3.37;;
11887;SDS011;6003;42.756;23.130;2023-07-02T03:48:31;7.63;;;3.20;;
11887;SDS011;6003;42.756;23.130;2023-07-02T03:50:58;9.47;;;3.47;;
11887;SDS011;6003;42.756;23.130;2023-07-02T03:53:26;4.93;;;3.47;;
11887;SDS011;6003;42.756;23.130;2023-07-02T03:55:54;6.23;;;3.63;;
11887;SDS011;6003;42.756;23.130;2023-07-02T03:58:21;4.90;;;3.93;;
11887;SDS011;6003;42.756;23.130;2023-07-02T04:00:48;7.20;;;3.50;;
11887;SDS011;6003;42.756;23.130;2023-07-02T04:03:15;4.87;;;3.90;;
11887;SDS011;6003;42.756;23.130;2023-07-02T04:05:42;6.57;;;3.63;;
11887;SDS011;6003;42.756;23.130;2023-07-02T04:08:09;3.60;;;2.87;;
11887;SDS011;6003;42.756;23.130;2023-07-02T04:10:37;4.57;;;3.50;;
11887;SDS011;6003;42.756;23.130;2023-07-02T04:13:05;4.50;;;2.90;;
11887;SDS011;6003;42.756;23.130;2023-07-02T04:15:32;7.53;;;3.63;;
11887;SDS011;6003;42.756;23.130;2023-07-02T04:17:59;4.77;;;3.60;;
11887;SDS011;6003;42.756;23.130;2023-07-02T04:20:26;3.50;;;2.80;;
11887;SDS011;6003;42.756;23.130;2023-07-02T04:22:54;6.23;;;3.70;;
11887;SDS011;6003;42.756;23.130;2023-07-02T04:25:21;4.73;;;3.00;;
11887;SDS011;6003;42.756;23.130;2023-07-02T04:27:48;3.73;;;3.10;;
11887;SDS011;6003;42.756;23.130;2023-07-02T04:30:16;5.70;;;3.20;;
11887;SDS011;6003;42.756;23.130;2023-07-02T04:45:25;4.40;;;3.60;;
11887;SDS011;6003;42.756;23.130;2023-07-02T04:47:57;5.27;;;3.20;;
11887;SDS011;6003;42.756;23.130;2023-07-02T04:50:26;4.10;;;3.27;;
11887;SDS011;6003;42.756;23.130;2023-07-02T04:52:52;5.10;;;3.23;;
11887;SDS011;6003;42.756;23.130;2023-07-02T04:55:20;3.83;;;3.27;;
11887;SDS011;6003;42.756;23.130;2023-07-02T04:57:47;5.07;;;3.53;;
11887;SDS011;6003;42.756;23.130;2023-07-02T05:00:14;6.43;;;3.27;;
11887;SDS011;6003;42.756;23.130;2023-07-02T05:02:44;5.13;;;3.33;;
11887;SDS011;6003;42.756;23.130;2023-07-02T05:05:10;5.00;;;3.40;;
11887;SDS011;6003;42.756;23.130;2023-07-02T05:07:37;3.20;;;2.60;;
11887;SDS011;6003;42.756;23.130;2023-07-02T05:10:04;6.27;;;2.80;;
11887;SDS011;6003;42.756;23.130;2023-07-02T05:12:32;4.73;;;2.87;;
11887;SDS011;6003;42.756;23.130;2023-07-02T05:14:58;3.03;;;2.57;;
11887;SDS011;6003;42.756;23.130;2023-07-02T05:17:25;4.37;;;2.70;;
11887;SDS011;6003;42.756;23.130;2023-07-02T05:19:54;3.53;;;2.73;;
11887;SDS011;6003;42.756;23.130;2023-07-02T05:22:21;3.50;;;2.80;;
11887;SDS011;6003;42.756;23.130;2023-07-02T05:24:47;5.23;;;2.77;;
11887;SDS011;6003;42.756;23.130;2023-07-02T05:27:15;3.47;;;2.33;;
11887;SDS011;6003;42.756;23.130;2023-07-02T05:29:42;3.40;;;2.57;;
11887;SDS011;6003;42.756;23.130;2023-07-02T05:32:09;5.97;;;2.50;;
11887;SDS011;6003;42.756;23.130;2023-07-02T05:34:36;3.90;;;2.17;;
11887;SDS011;6003;42.756;23.130;2023-07-02T05:37:05;3.83;;;2.50;;
11887;SDS011;6003;42.756;23.130;2023-07-02T05:39:33;6.33;;;2.83;;
11887;SDS011;6003;42.756;23.130;2023-07-02T05:42:00;5.07;;;2.30;;
11887;SDS011;6003;42.756;23.130;2023-07-02T05:44:27;6.07;;;2.40;;
11887;SDS011;6003;42.756;23.130;2023-07-02T05:46:53;3.60;;;2.20;;
11887;SDS011;6003;42.756;23.130;2023-07-02T05:49:20;4.70;;;2.30;;
11887;SDS011;6003;42.756;23.130;2023-07-02T05:51:47;3.67;;;2.40;;
11887;SDS011;6003;42.756;23.130;2023-07-02T05:54:16;2.37;;;2.17;;
11887;SDS011;6003;42.756;23.130;2023-07-02T05:56:43;4.37;;;2.40;;
11887;SDS011;6003;42.756;23.130;2023-07-02T05:59:10;2.60;;;2.10;;
11887;SDS011;6003;42.756;23.130;2023-07-02T06:01:39;2.80;;;2.40;;
11887;SDS011;6003;42.756;23.130;2023-07-02T06:04:06;2.20;;;2.10;;
11887;SDS011;6003;42.756;23.130;2023-07-02T06:06:34;2.47;;;2.27;;
11887;SDS011;6003;42.756;23.130;2023-07-02T06:09:00;3.87;;;2.53;;
11887;SDS011;6003;42.756;23.130;2023-07-02T06:11:29;3.57;;;2.00;;
11887;SDS011;6003;42.756;23.130;2023-07-02T06:13:56;3.20;;;2.30;;
11887;SDS011;6003;42.756;23.130;2023-07-02T06:16:25;3.57;;;2.80;;
11887;SDS011;6003;42.756;23.130;2023-07-02T06:18:52;2.63;;;2.43;;
11887;SDS011;6003;42.756;23.130;2023-07-02T06:21:19;5.50;;;2.33;;
11887;SDS011;6003;42.756;23.130;2023-07-02T06:23:46;4.77;;;2.67;;
11887;SDS011;6003;42.756;23.130;2023-07-02T06:26:13;2.90;;;2.30;;
11887;SDS011;6003;42.756;23.130;2023-07-02T06:28:42;2.53;;;2.27;;
11887;SDS011;6003;42.756;23.130;2023-07-02T06:31:09;2.83;;;2.40;;
11887;SDS011;6003;42.756;23.130;2023-07-02T06:33:38;4.13;;;2.30;;
11887;SDS011;6003;42.756;23.130;2023-07-02T06:36:05;2.55;;;2.35;;
11887;SDS011;6003;42.756;23.130;2023-07-02T06:38:32;2.53;;;2.38;;
11887;SDS011;6003;42.756;23.130;2023-07-02T06:40:59;2.60;;;2.40;;
11887;SDS011;6003;42.756;23.130;2023-07-02T06:43:26;2.60;;;2.40;;
11887;SDS011;6003;42.756;23.130;2023-07-02T06:45:54;3.65;;;2.38;;
11887;SDS011;6003;42.756;23.130;2023-07-02T06:48:21;2.53;;;2.30;;
11887;SDS011;6003;42.756;23.130;2023-07-02T06:50:47;2.10;;;1.90;;
11887;SDS011;6003;42.756;23.130;2023-07-02T06:53:14;2.58;;;2.38;;
11887;SDS011;6003;42.756;23.130;2023-07-02T06:55:41;3.88;;;2.30;;
11887;SDS011;6003;42.756;23.130;2023-07-02T06:58:08;2.78;;;2.00;;
11887;SDS011;6003;42.756;23.130;2023-07-02T07:00:35;2.47;;;2.28;;
11887;SDS011;6003;42.756;23.130;2023-07-02T07:03:03;2.30;;;2.10;;
11887;SDS011;6003;42.756;23.130;2023-07-02T07:05:31;2.78;;;1.77;;
11887;SDS011;6003;42.756;23.130;2023-07-02T07:07:58;2.17;;;2.00;;
11887;SDS011;6003;42.756;23.130;2023-07-02T07:10:26;1.92;;;1.83;;
11887;SDS011;6003;42.756;23.130;2023-07-02T07:12:53;2.85;;;2.13;;
11887;SDS011;6003;42.756;23.130;2023-07-02T07:15:20;1.98;;;1.88;;
11887;SDS011;6003;42.756;23.130;2023-07-02T07:17:47;3.05;;;2.75;;
11887;SDS011;6003;42.756;23.130;2023-07-02T07:20:15;2.50;;;2.30;;
11887;SDS011;6003;42.756;23.130;2023-07-02T07:22:42;2.58;;;2.40;;
11887;SDS011;6003;42.756;23.130;2023-07-02T07:25:09;2.20;;;2.10;;
11887;SDS011;6003;42.756;23.130;2023-07-02T07:27:36;2.50;;;2.30;;
11887;SDS011;6003;42.756;23.130;2023-07-02T07:30:03;2.65;;;2.45;;
11887;SDS011;6003;42.756;23.130;2023-07-02T07:32:31;2.85;;;2.55;;
11887;SDS011;6003;42.756;23.130;2023-07-02T07:34:58;3.38;;;2.78;;
11887;SDS011;6003;42.756;23.130;2023-07-02T07:37:26;2.50;;;2.30;;
11887;SDS011;6003;42.756;23.130;2023-07-02T07:39:53;2.58;;;2.38;;
11887;SDS011;6003;42.756;23.130;2023-07-02T07:42:20;2.25;;;2.05;;
11887;SDS011;6003;42.756;23.130;2023-07-02T07:44:47;2.92;;;2.63;;
11887;SDS011;6003;42.756;23.130;2023-07-02T07:47:13;2.40;;;2.20;;
11887;SDS011;6003;42.756;23.130;2023-07-02T07:49:40;3.30;;;2.63;;
11887;SDS011;6003;42.756;23.130;2023-07-02T07:52:07;3.30;;;3.00;;
11887;SDS011;6003;42.756;23.130;2023-07-02T07:54:35;3.40;;;2.83;;
11887;SDS011;6003;42.756;23.130;2023-07-02T07:57:02;3.90;;;2.78;;
11887;SDS011;6003;42.756;23.130;2023-07-02T07:59:30;4.22;;;2.75;;
11887;SDS011;6003;42.756;23.130;2023-07-02T08:01:57;2.47;;;2.28;;
11887;SDS011;6003;42.756;23.130;2023-07-02T08:04:23;2.28;;;2.15;;
11887;SDS011;6003;42.756;23.130;2023-07-02T08:06:50;3.00;;;2.72;;
11887;SDS011;6003;42.756;23.130;2023-07-02T08:09:18;2.60;;;2.40;;
11887;SDS011;6003;42.756;23.130;2023-07-02T08:11:46;2.58;;;2.35;;
11887;SDS011;6003;42.756;23.130;2023-07-02T08:14:14;2.80;;;2.50;;
11887;SDS011;6003;42.756;23.130;2023-07-02T08:16:40;2.92;;;2.33;;
11887;SDS011;6003;42.756;23.130;2023-07-02T08:19:07;3.10;;;2.80;;
11887;SDS011;6003;42.756;23.130;2023-07-02T08:21:34;3.30;;;2.80;;
11887;SDS011;6003;42.756;23.130;2023-07-02T08:24:01;2.83;;;2.38;;
11887;SDS011;6003;42.756;23.130;2023-07-02T08:26:28;5.40;;;2.20;;
11887;SDS011;6003;42.756;23.130;2023-07-02T08:28:57;2.38;;;2.17;;
11887;SDS011;6003;42.756;23.130;2023-07-02T08:31:24;2.55;;;2.05;;
11887;SDS011;6003;42.756;23.130;2023-07-02T08:33:51;2.00;;;1.80;;
11887;SDS011;6003;42.756;23.130;2023-07-02T08:36:18;2.20;;;2.00;;
11887;SDS011;6003;42.756;23.130;2023-07-02T08:38:51;2.30;;;2.10;;
11887;SDS011;6003;42.756;23.130;2023-07-02T08:41:19;2.47;;;2.28;;
11887;SDS011;6003;42.756;23.130;2023-07-02T08:43:47;2.20;;;2.00;;
11887;SDS011;6003;42.756;23.130;2023-07-02T08:46:16;3.53;;;2.00;;
11887;SDS011;6003;42.756;23.130;2023-07-02T08:48:43;2.38;;;2.03;;
11887;SDS011;6003;42.756;23.130;2023-07-02T08:51:10;2.58;;;2.03;;
11887;SDS011;6003;42.756;23.130;2023-07-02T08:53:37;2.00;;;1.83;;
11887;SDS011;6003;42.756;23.130;2023-07-02T08:56:04;3.58;;;2.10;;
11887;SDS011;6003;42.756;23.130;2023-07-02T08:58:31;2.55;;;2.15;;
11887;SDS011;6003;42.756;23.130;2023-07-02T09:01:04;2.88;;;2.03;;
11887;SDS011;6003;42.756;23.130;2023-07-02T09:03:33;2.20;;;2.00;;
11887;SDS011;6003;42.756;23.130;2023-07-02T09:06:02;2.70;;;2.10;;
11887;SDS011;6003;42.756;23.130;2023-07-02T09:08:29;3.55;;;1.75;;
11887;SDS011;6003;42.756;23.130;2023-07-02T09:11:08;2.20;;;1.90;;
11887;SDS011;6003;42.756;23.130;2023-07-02T09:13:42;7.55;;;2.03;;
11887;SDS011;6003;42.756;23.130;2023-07-02T09:16:20;2.28;;;2.08;;
11887;SDS011;6003;42.756;23.130;2023-07-02T09:18:56;2.00;;;1.80;;
11887;SDS011;6003;42.756;23.130;2023-07-02T09:21:27;3.05;;;2.15;;
11887;SDS011;6003;42.756;23.130;2023-07-02T09:24:11;2.47;;;2.28;;
11887;SDS011;6003;42.756;23.130;2023-07-02T09:26:41;2.10;;;1.85;;
11887;SDS011;6003;42.756;23.130;2023-07-02T09:29:09;2.30;;;2.10;;
11887;SDS011;6003;42.756;23.130;2023-07-02T09:31:42;2.35;;;2.15;;
11887;SDS011;6003;42.756;23.130;2023-07-02T09:34:12;2.03;;;1.90;;
11887;SDS011;6003;42.756;23.130;2023-07-02T09:36:39;2.05;;;1.95;;
11887;SDS011;6003;42.756;23.130;2023-07-02T09:39:07;1.80;;;1.70;;
11887;SDS011;6003;42.756;23.130;2023-07-02T09:41:38;1.90;;;1.80;;
11887;SDS011;6003;42.756;23.130;2023-07-02T09:44:06;3.03;;;2.05;;
11887;SDS011;6003;42.756;23.130;2023-07-02T09:46:35;2.20;;;2.10;;
11887;SDS011;6003;42.756;23.130;2023-07-02T09:49:08;1.48;;;1.38;;
11887;SDS011;6003;42.756;23.130;2023-07-02T09:51:41;1.80;;;1.70;;
11887;SDS011;6003;42.756;23.130;2023-07-02T09:54:09;2.50;;;2.30;;
11887;SDS011;6003;42.756;23.130;2023-07-02T09:56:36;1.98;;;1.88;;
11887;SDS011;6003;42.756;23.130;2023-07-02T09:59:03;2.83;;;2.50;;
11887;SDS011;6003;42.756;23.130;2023-07-02T10:01:30;1.98;;;1.88;;
11887;SDS011;6003;42.756;23.130;2023-07-02T10:03:57;2.15;;;1.80;;
11887;SDS011;6003;42.756;23.130;2023-07-02T10:06:25;2.22;;;2.03;;
11887;SDS011;6003;42.756;23.130;2023-07-02T10:08:52;1.88;;;1.77;;
11887;SDS011;6003;42.756;23.130;2023-07-02T10:11:20;2.05;;;1.85;;
11887;SDS011;6003;42.756;23.130;2023-07-02T10:13:57;2.55;;;2.35;;
11887;SDS011;6003;42.756;23.130;2023-07-02T10:16:24;2.72;;;2.53;;
11887;SDS011;6003;42.756;23.130;2023-07-02T10:18:52;2.70;;;2.25;;
11887;SDS011;6003;42.756;23.130;2023-07-02T10:21:19;3.03;;;2.22;;
11887;SDS011;6003;42.756;23.130;2023-07-02T10:23:48;4.00;;;2.30;;
11887;SDS011;6003;42.756;23.130;2023-07-02T10:26:16;2.50;;;2.30;;
11887;SDS011;6003;42.756;23.130;2023-07-02T10:28:55;2.35;;;2.15;;
11887;SDS011;6003;42.756;23.130;2023-07-02T10:31:22;2.10;;;1.90;;
11887;SDS011;6003;42.756;23.130;2023-07-02T10:33:49;1.90;;;1.80;;
11887;SDS011;6003;42.756;23.130;2023-07-02T10:36:17;2.25;;;2.15;;
11887;SDS011;6003;42.756;23.130;2023-07-02T10:38:46;2.42;;;2.22;;
11887;SDS011;6003;42.756;23.130;2023-07-02T10:41:22;2.35;;;2.15;;
11887;SDS011;6003;42.756;23.130;2023-07-02T10:43:50;2.65;;;2.45;;
11887;SDS011;6003;42.756;23.130;2023-07-02T10:46:20;5.53;;;2.70;;
11887;SDS011;6003;42.756;23.130;2023-07-02T10:51:21;2.70;;;2.50;;
11887;SDS011;6003;42.756;23.130;2023-07-02T10:53:58;2.33;;;2.10;;
11887;SDS011;6003;42.756;23.130;2023-07-02T10:56:27;2.63;;;2.42;;
11887;SDS011;6003;42.756;23.130;2023-07-02T10:58:55;2.60;;;2.40;;
11887;SDS011;6003;42.756;23.130;2023-07-02T11:01:22;2.47;;;2.28;;
11887;SDS011;6003;42.756;23.130;2023-07-02T11:03:55;3.50;;;2.70;;
11887;SDS011;6003;42.756;23.130;2023-07-02T11:06:22;4.53;;;2.40;;
11887;SDS011;6003;42.756;23.130;2023-07-02T11:08:49;1.80;;;1.70;;
11887;SDS011;6003;42.756;23.130;2023-07-02T11:11:16;2.40;;;2.00;;
11887;SDS011;6003;42.756;23.130;2023-07-02T11:13:47;1.70;;;1.60;;
11887;SDS011;6003;42.756;23.130;2023-07-02T11:16:19;1.30;;;1.20;;
11887;SDS011;6003;42.756;23.130;2023-07-02T11:18:49;1.60;;;1.50;;
11887;SDS011;6003;42.756;23.130;2023-07-02T11:21:16;1.40;;;1.30;;
11887;SDS011;6003;42.756;23.130;2023-07-02T11:23:44;3.70;;;1.73;;
11887;SDS011;6003;42.756;23.130;2023-07-02T11:26:11;1.50;;;1.40;;
11887;SDS011;6003;42.756;23.130;2023-07-02T11:28:47;2.43;;;2.23;;
11887;SDS011;6003;42.756;23.130;2023-07-02T11:31:26;2.10;;;1.97;;
11887;SDS011;6003;42.756;23.130;2023-07-02T11:33:53;2.40;;;2.13;;
11887;SDS011;6003;42.756;23.130;2023-07-02T11:36:21;2.20;;;2.00;;
11887;SDS011;6003;42.756;23.130;2023-07-02T11:38:49;2.03;;;1.93;;
11887;SDS011;6003;42.756;23.130;2023-07-02T11:41:17;2.40;;;2.20;;
11887;SDS011;6003;42.756;23.130;2023-07-02T11:43:45;3.13;;;2.30;;
11887;SDS011;6003;42.756;23.130;2023-07-02T11:46:13;2.77;;;1.93;;
11887;SDS011;6003;42.756;23.130;2023-07-02T11:48:41;2.60;;;1.80;;
11887;SDS011;6003;42.756;23.130;2023-07-02T11:51:08;2.33;;;2.17;;
11887;SDS011;6003;42.756;23.130;2023-07-02T11:53:35;2.33;;;2.13;;
11887;SDS011;6003;42.756;23.130;2023-07-02T11:56:01;2.30;;;2.10;;
11887;SDS011;6003;42.756;23.130;2023-07-02T11:58:28;2.30;;;1.90;;
11887;SDS011;6003;42.756;23.130;2023-07-02T12:00:55;2.20;;;2.10;;
11887;SDS011;6003;42.756;23.130;2023-07-02T12:03:23;2.50;;;1.80;;
11887;SDS011;6003;42.756;23.130;2023-07-02T12:05:51;3.67;;;2.60;;
11887;SDS011;6003;42.756;23.130;2023-07-02T12:08:18;2.27;;;2.10;;
11887;SDS011;6003;42.756;23.130;2023-07-02T12:10:44;2.30;;;2.10;;
11887;SDS011;6003;42.756;23.130;2023-07-02T12:13:11;2.22;;;2.03;;
11887;SDS011;6003;42.756;23.130;2023-07-02T12:15:38;3.90;;;2.80;;
11887;SDS011;6003;42.756;23.130;2023-07-02T12:18:06;4.18;;;3.20;;
11887;SDS011;6003;42.756;23.130;2023-07-02T12:20:34;4.60;;;3.53;;
11887;SDS011;6003;42.756;23.130;2023-07-02T12:23:01;3.75;;;2.97;;
11887;SDS011;6003;42.756;23.130;2023-07-02T12:25:28;2.97;;;2.60;;
11887;SDS011;6003;42.756;23.130;2023-07-02T12:27:55;3.28;;;2.58;;
11887;SDS011;6003;42.756;23.130;2023-07-02T12:30:22;2.92;;;2.67;;
11887;SDS011;6003;42.756;23.130;2023-07-02T12:32:49;4.22;;;2.70;;
11887;SDS011;6003;42.756;23.130;2023-07-02T12:35:15;2.58;;;2.38;;
11887;SDS011;6003;42.756;23.130;2023-07-02T12:37:44;2.83;;;2.60;;
11887;SDS011;6003;42.756;23.130;2023-07-02T12:40:12;3.72;;;2.80;;
11887;SDS011;6003;42.756;23.130;2023-07-02T12:42:41;3.08;;;2.88;;
11887;SDS011;6003;42.756;23.130;2023-07-02T12:45:09;2.83;;;2.38;;
11887;SDS011;6003;42.756;23.130;2023-07-02T12:47:37;3.47;;;2.80;;
11887;SDS011;6003;42.756;23.130;2023-07-02T12:50:04;3.45;;;2.63;;
11887;SDS011;6003;42.756;23.130;2023-07-02T12:52:32;2.65;;;2.30;;
11887;SDS011;6003;42.756;23.130;2023-07-02T12:55:01;3.75;;;2.90;;
11887;SDS011;6003;42.756;23.130;2023-07-02T12:57:30;2.95;;;2.75;;
11887;SDS011;6003;42.756;23.130;2023-07-02T12:59:57;2.50;;;2.28;;
11887;SDS011;6003;42.756;23.130;2023-07-02T13:02:24;3.20;;;2.80;;
11887;SDS011;6003;42.756;23.130;2023-07-02T13:04:51;3.05;;;2.50;;
11887;SDS011;6003;42.756;23.130;2023-07-02T13:07:18;2.97;;;2.67;;
11887;SDS011;6003;42.756;23.130;2023-07-02T13:09:45;2.53;;;2.33;;
11887;SDS011;6003;42.756;23.130;2023-07-02T13:12:14;4.00;;;3.17;;
11887;SDS011;6003;42.756;23.130;2023-07-02T13:14:42;2.80;;;2.60;;
11887;SDS011;6003;42.756;23.130;2023-07-02T13:17:09;3.93;;;3.10;;
11887;SDS011;6003;42.756;23.130;2023-07-02T13:19:36;4.30;;;2.97;;
11887;SDS011;6003;42.756;23.130;2023-07-02T13:22:04;4.00;;;2.87;;
11887;SDS011;6003;42.756;23.130;2023-07-02T13:24:32;3.10;;;2.80;;
11887;SDS011;6003;42.756;23.130;2023-07-02T13:27:02;3.47;;;2.83;;
11887;SDS011;6003;42.756;23.130;2023-07-02T13:29:33;3.50;;;3.20;;
11887;SDS011;6003;42.756;23.130;2023-07-02T13:32:00;3.87;;;2.53;;
11887;SDS011;6003;42.756;23.130;2023-07-02T13:34:28;5.27;;;3.03;;
11887;SDS011;6003;42.756;23.130;2023-07-02T13:36:58;3.97;;;2.70;;
11887;SDS011;6003;42.756;23.130;2023-07-02T13:39:27;3.23;;;2.83;;
11887;SDS011;6003;42.756;23.130;2023-07-02T13:41:55;3.40;;;3.07;;
11887;SDS011;6003;42.756;23.130;2023-07-02T13:44:22;3.47;;;2.90;;
11887;SDS011;6003;42.756;23.130;2023-07-02T13:46:50;3.73;;;3.33;;
11887;SDS011;6003;42.756;23.130;2023-07-02T13:49:18;3.53;;;2.70;;
11887;SDS011;6003;42.756;23.130;2023-07-02T13:51:46;4.53;;;3.73;;
11887;SDS011;6003;42.756;23.130;2023-07-02T13:54:14;5.57;;;4.20;;
11887;SDS011;6003;42.756;23.130;2023-07-02T13:56:43;6.17;;;4.53;;
11887;SDS011;6003;42.756;23.130;2023-07-02T13:59:12;4.40;;;3.93;;
11887;SDS011;6003;42.756;23.130;2023-07-02T14:01:40;2.90;;;2.70;;
11887;SDS011;6003;42.756;23.130;2023-07-02T14:04:08;4.03;;;3.20;;
11887;SDS011;6003;42.756;23.130;2023-07-02T14:06:35;4.13;;;3.40;;
11887;SDS011;6003;42.756;23.130;2023-07-02T14:09:02;3.10;;;2.80;;
11887;SDS011;6003;42.756;23.130;2023-07-02T14:11:31;4.47;;;3.43;;
11887;SDS011;6003;42.756;23.130;2023-07-02T14:13:59;5.07;;;3.27;;
11887;SDS011;6003;42.756;23.130;2023-07-02T14:16:27;3.40;;;2.93;;
11887;SDS011;6003;42.756;23.130;2023-07-02T14:18:54;4.37;;;3.23;;
11887;SDS011;6003;42.756;23.130;2023-07-02T14:21:21;6.20;;;3.37;;
11887;SDS011;6003;42.756;23.130;2023-07-02T14:23:48;4.70;;;3.80;;
11887;SDS011;6003;42.756;23.130;2023-07-02T14:26:15;4.40;;;3.37;;
11887;SDS011;6003;42.756;23.130;2023-07-02T14:28:42;4.07;;;3.67;;
11887;SDS011;6003;42.756;23.130;2023-07-02T14:31:09;3.97;;;3.30;;
11887;SDS011;6003;42.756;23.130;2023-07-02T14:33:38;6.20;;;4.07;;
11887;SDS011;6003;42.756;23.130;2023-07-02T14:36:05;4.70;;;3.50;;
11887;SDS011;6003;42.756;23.130;2023-07-02T14:38:33;4.20;;;3.80;;
11887;SDS011;6003;42.756;23.130;2023-07-02T14:41:00;3.13;;;2.90;;
11887;SDS011;6003;42.756;23.130;2023-07-02T14:43:28;3.43;;;3.00;;
11887;SDS011;6003;42.756;23.130;2023-07-02T14:45:58;3.90;;;3.13;;
11887;SDS011;6003;42.756;23.130;2023-07-02T14:48:27;5.10;;;3.53;;
11887;SDS011;6003;42.756;23.130;2023-07-02T14:50:56;3.78;;;3.22;;
11887;SDS011;6003;42.756;23.130;2023-07-02T14:53:24;3.28;;;2.97;;
11887;SDS011;6003;42.756;23.130;2023-07-02T14:55:53;3.42;;;3.13;;
11887;SDS011;6003;42.756;23.130;2023-07-02T14:58:21;3.45;;;3.15;;
11887;SDS011;6003;42.756;23.130;2023-07-02T15:00:49;3.97;;;3.20;;
11887;SDS011;6003;42.756;23.130;2023-07-02T15:03:17;3.25;;;2.95;;
11887;SDS011;6003;42.756;23.130;2023-07-02T15:05:45;3.50;;;3.20;;
11887;SDS011;6003;42.756;23.130;2023-07-02T15:08:14;3.97;;;3.30;;